sensor_id;sensor_type;location;lat;lon;timestamp;temperature;humidity
45735;DHT22;31446;49.632;8.328;2023-01-13T00:12:00;10.70;99.90
45735;DHT22;31446;49.632;8.328;2023-01-13T00:27:07;10.80;99.90
45735;DHT22;31446;49.632;8.328;2023-01-13T00:42:13;10.90;99.90
45735;DHT22;31446;49.632;8.328;2023-01-13T00:57:33;10.90;99.90
45735;DHT22;31446;49.632;8.328;2023-01-13T01:12:39;11.00;99.90
45735;DHT22;31446;49.632;8.328;2023-01-13T01:27:46;11.10;99.90
45735;DHT22;31446;49.632;8.328;2023-01-13T01:42:55;10.80;99.90
45735;DHT22;31446;49.632;8.328;2023-01-13T01:58:18;10.80;99.90
45735;DHT22;31446;49.632;8.328;2023-01-13T02:13:26;10.50;99.90
45735;DHT22;31446;49.632;8.328;2023-01-13T02:28:53;10.30;99.90
45735;DHT22;31446;49.632;8.328;2023-01-13T02:44:21;10.50;99.90
45735;DHT22;31446;49.632;8.328;2023-01-13T02:59:30;10.60;99.90
45735;DHT22;31446;49.632;8.328;2023-01-13T03:14:41;10.60;99.90
45735;DHT22;31446;49.632;8.328;2023-01-13T03:29:56;10.70;99.90
45735;DHT22;31446;49.632;8.328;2023-01-13T03:45:09;10.80;99.90
45735;DHT22;31446;49.632;8.328;2023-01-13T04:00:18;10.80;99.90
45735;DHT22;31446;49.632;8.328;2023-01-13T04:15:30;10.80;99.90
45735;DHT22;31446;49.632;8.328;2023-01-13T04:30:37;10.90;99.90
45735;DHT22;31446;49.632;8.328;2023-01-13T04:45:44;10.80;99.90
45735;DHT22;31446;49.632;8.328;2023-01-13T05:00:51;10.80;99.90
45735;DHT22;31446;49.632;8.328;2023-01-13T05:15:59;10.90;99.90
45735;DHT22;31446;49.632;8.328;2023-01-13T05:31:27;10.80;99.90
45735;DHT22;31446;49.632;8.328;2023-01-13T05:46:33;10.90;99.90
45735;DHT22;31446;49.632;8.328;2023-01-13T06:01:40;11.00;99.90
45735;DHT22;31446;49.632;8.328;2023-01-13T06:16:46;10.90;99.90
45735;DHT22;31446;49.632;8.328;2023-01-13T06:31:53;10.80;99.90
45735;DHT22;31446;49.632;8.328;2023-01-13T06:46:59;9.70;99.90
45735;DHT22;31446;49.632;8.328;2023-01-13T07:02:06;9.30;99.90
45735;DHT22;31446;49.632;8.328;2023-01-13T07:17:12;9.10;99.90
45735;DHT22;31446;49.632;8.328;2023-01-13T07:32:27;9.10;99.90
45735;DHT22;31446;49.632;8.328;2023-01-13T07:47:33;9.10;99.90
45735;DHT22;31446;49.632;8.328;2023-01-13T08:02:40;9.00;99.90
45735;DHT22;31446;49.632;8.328;2023-01-13T08:17:46;9.00;99.90
45735;DHT22;31446;49.632;8.328;2023-01-13T08:32:53;8.70;99.90
45735;DHT22;31446;49.632;8.328;2023-01-13T08:48:00;8.90;99.90
45735;DHT22;31446;49.632;8.328;2023-01-13T09:03:06;9.10;99.90
45735;DHT22;31446;49.632;8.328;2023-01-13T09:18:13;9.60;99.90
45735;DHT22;31446;49.632;8.328;2023-01-13T09:33:22;9.70;99.90
45735;DHT22;31446;49.632;8.328;2023-01-13T09:48:41;10.50;99.90
45735;DHT22;31446;49.632;8.328;2023-01-13T10:04:02;10.00;99.90
45735;DHT22;31446;49.632;8.328;2023-01-13T10:19:14;9.90;99.90
45735;DHT22;31446;49.632;8.328;2023-01-13T10:34:22;9.90;99.90
45735;DHT22;31446;49.632;8.328;2023-01-13T10:49:31;10.30;99.90
45735;DHT22;31446;49.632;8.328;2023-01-13T11:04:41;10.30;99.90
45735;DHT22;31446;49.632;8.328;2023-01-13T11:19:52;11.00;99.90
45735;DHT22;31446;49.632;8.328;2023-01-13T11:35:08;10.90;99.90
45735;DHT22;31446;49.632;8.328;2023-01-13T11:50:27;10.70;99.90
45735;DHT22;31446;49.632;8.328;2023-01-13T12:05:38;10.60;99.90
45735;DHT22;31446;49.632;8.328;2023-01-13T12:20:51;10.80;99.90
45735;DHT22;31446;49.632;8.328;2023-01-13T12:36:08;9.20;99.90
45735;DHT22;31446;49.632;8.328;2023-01-13T12:51:25;9.40;99.90
45735;DHT22;31446;49.632;8.328;2023-01-13T13:06:31;11.20;99.90
45735;DHT22;31446;49.632;8.328;2023-01-13T13:37:25;11.40;99.90
45735;DHT22;31446;49.632;8.328;2023-01-13T13:52:37;10.10;99.90
45735;DHT22;31446;49.632;8.328;2023-01-13T14:07:46;10.40;99.90
45735;DHT22;31446;49.632;8.328;2023-01-13T14:22:53;10.20;99.90
45735;DHT22;31446;49.632;8.328;2023-01-13T14:38:03;10.10;99.90
45735;DHT22;31446;49.632;8.328;2023-01-13T14:53:29;9.80;99.90
45735;DHT22;31446;49.632;8.328;2023-01-13T15:08:39;9.30;99.90
45735;DHT22;31446;49.632;8.328;2023-01-13T15:23:46;8.70;99.90
45735;DHT22;31446;49.632;8.328;2023-01-13T15:38:52;8.60;99.90
45735;DHT22;31446;49.632;8.328;2023-01-13T15:53:58;8.60;99.90
45735;DHT22;31446;49.632;8.328;2023-01-13T16:09:05;8.70;99.90
45735;DHT22;31446;49.632;8.328;2023-01-13T16:24:11;8.70;99.90
45735;DHT22;31446;49.632;8.328;2023-01-13T16:39:21;9.00;99.90
45735;DHT22;31446;49.632;8.328;2023-01-13T16:54:27;8.60;99.90
45735;DHT22;31446;49.632;8.328;2023-01-13T17:09:34;8.30;99.90
45735;DHT22;31446;49.632;8.328;2023-01-13T17:24:40;8.20;99.90
45735;DHT22;31446;49.632;8.328;2023-01-13T17:39:47;7.90;99.90
45735;DHT22;31446;49.632;8.328;2023-01-13T17:54:55;7.80;99.90
45735;DHT22;31446;49.632;8.328;2023-01-13T18:10:01;7.60;99.90
45735;DHT22;31446;49.632;8.328;2023-01-13T18:25:11;7.90;99.90
45735;DHT22;31446;49.632;8.328;2023-01-13T18:40:30;7.60;99.90
45735;DHT22;31446;49.632;8.328;2023-01-13T18:55:36;7.20;99.90
45735;DHT22;31446;49.632;8.328;2023-01-13T19:10:42;7.30;99.90
45735;DHT22;31446;49.632;8.328;2023-01-13T19:25:49;7.00;99.90
45735;DHT22;31446;49.632;8.328;2023-01-13T19:40:57;6.80;99.90
45735;DHT22;31446;49.632;8.328;2023-01-13T19:56:05;7.10;99.90
45735;DHT22;31446;49.632;8.328;2023-01-13T20:11:12;7.50;99.90
45735;DHT22;31446;49.632;8.328;2023-01-13T20:26:33;7.80;99.90
45735;DHT22;31446;49.632;8.328;2023-01-13T20:41:41;8.00;99.90
45735;DHT22;31446;49.632;8.328;2023-01-13T20:56:59;8.00;99.90
45735;DHT22;31446;49.632;8.328;2023-01-13T21:12:06;7.50;99.90
45735;DHT22;31446;49.632;8.328;2023-01-13T21:27:25;7.40;99.90
45735;DHT22;31446;49.632;8.328;2023-01-13T21:42:31;7.30;99.90
45735;DHT22;31446;49.632;8.328;2023-01-13T21:57:52;7.50;99.90
45735;DHT22;31446;49.632;8.328;2023-01-13T22:13:00;7.80;99.90
45735;DHT22;31446;49.632;8.328;2023-01-13T22:28:27;7.90;99.90
45735;DHT22;31446;49.632;8.328;2023-01-13T22:43:38;8.00;99.90
45735;DHT22;31446;49.632;8.328;2023-01-13T22:58:44;8.00;99.90
45735;DHT22;31446;49.632;8.328;2023-01-13T23:13:54;8.00;99.90
45735;DHT22;31446;49.632;8.328;2023-01-13T23:29:03;7.90;99.90
45735;DHT22;31446;49.632;8.328;2023-01-13T23:44:10;7.60;99.90
45735;DHT22;31446;49.632;8.328;2023-01-13T23:59:17;7.40;99.90
